SWA2545 KPHL-KBNA
Flight info
| Callsign | SWA2545 |
|---|---|
| Flight time | N/A |
| Altitude | 32000 |
| Route | MXE PENSY J110 FLIRT J6 MRB/N0450F380 J6 HVQ Q68 YOCKY CUTRR PASLY5 |
| Aircraft | B738/M-SDE2E3FGHIRWXY/LB1 |
Departure
| Time | 2026-05-04 19:08 |
|---|---|
| Airport | Philadelphia International Airport (KPHL) |
Arrival
| Time | N/A |
|---|---|
| Airport | Nashville International Airport (KBNA) |
| Time | Latitude | Longitude | Altitude | Speed | Heading |
|---|---|---|---|---|---|
| 2026-05-04 18:22 | 39.87841 | -75.23722 | 28 ft | 0 kts | 199° |
| 2026-05-04 18:57 | 39.87853 | -75.23717 | 29 ft | 3 kts | 199° |
| 2026-05-04 18:57 | 39.87872 | -75.23708 | 27 ft | 3 kts | 196° |
| 2026-05-04 18:58 | 39.87892 | -75.23702 | 26 ft | 3 kts | 179° |
| 2026-05-04 18:58 | 39.87907 | -75.23706 | 28 ft | 2 kts | 134° |
| 2026-05-04 18:58 | 39.87910 | -75.23709 | 28 ft | 1 kts | 128° |
| 2026-05-04 18:58 | 39.87901 | -75.23691 | 27 ft | 3 kts | 120° |
| 2026-05-04 18:59 | 39.87893 | -75.23667 | 27 ft | 2 kts | 109° |
| 2026-05-04 18:59 | 39.87891 | -75.23659 | 27 ft | 0 kts | 109° |
| 2026-05-04 19:02 | 39.87890 | -75.23654 | 24 ft | 2 kts | 110° |
| 2026-05-04 19:02 | 39.87879 | -75.23613 | 24 ft | 8 kts | 109° |
| 2026-05-04 19:02 | 39.87856 | -75.23516 | 26 ft | 13 kts | 96° |
| 2026-05-04 19:02 | 39.87829 | -75.23420 | 24 ft | 12 kts | 163° |
| 2026-05-04 19:03 | 39.87750 | -75.23384 | 26 ft | 12 kts | 158° |
| 2026-05-04 19:03 | 39.87673 | -75.23346 | 28 ft | 12 kts | 159° |
| 2026-05-04 19:03 | 39.87599 | -75.23309 | 27 ft | 11 kts | 159° |
| 2026-05-04 19:03 | 39.87518 | -75.23269 | 28 ft | 14 kts | 159° |
| 2026-05-04 19:04 | 39.87426 | -75.23223 | 27 ft | 14 kts | 159° |
| 2026-05-04 19:04 | 39.87335 | -75.23178 | 27 ft | 14 kts | 159° |
| 2026-05-04 19:04 | 39.87257 | -75.23139 | 28 ft | 9 kts | 159° |
| 2026-05-04 19:04 | 39.87225 | -75.23077 | 25 ft | 9 kts | 84° |
| 2026-05-04 19:05 | 39.87224 | -75.23001 | 26 ft | 9 kts | 133° |
| 2026-05-04 19:05 | 39.87168 | -75.22985 | 24 ft | 9 kts | 208° |
| 2026-05-04 19:05 | 39.87149 | -75.23057 | 24 ft | 9 kts | 254° |
| 2026-05-04 19:05 | 39.87131 | -75.23140 | 25 ft | 10 kts | 251° |
| 2026-05-04 19:06 | 39.87084 | -75.23203 | 28 ft | 10 kts | 229° |
| 2026-05-04 19:06 | 39.87048 | -75.23278 | 24 ft | 10 kts | 242° |
| 2026-05-04 19:06 | 39.87026 | -75.23358 | 26 ft | 9 kts | 254° |
| 2026-05-04 19:06 | 39.86991 | -75.23421 | 29 ft | 9 kts | 189° |
| 2026-05-04 19:07 | 39.86932 | -75.23402 | 26 ft | 8 kts | 164° |
| 2026-05-04 19:07 | 39.86896 | -75.23437 | 27 ft | 8 kts | 255° |
| 2026-05-04 19:07 | 39.86880 | -75.23522 | 24 ft | 13 kts | 256° |
| 2026-05-04 19:07 | 39.86816 | -75.23839 | 25 ft | 70 kts | 255° |
| 2026-05-04 19:08 | 39.86641 | -75.24719 | 27 ft | 128 kts | 256° |
| 2026-05-04 19:08 | 39.86404 | -75.25947 | 325 ft | 148 kts | 256° |
| 2026-05-04 19:08 | 39.86124 | -75.27287 | 978 ft | 158 kts | 249° |
| 2026-05-04 19:08 | 39.85590 | -75.28540 | 1695 ft | 159 kts | 232° |
| 2026-05-04 19:09 | 39.84895 | -75.29729 | 2293 ft | 176 kts | 232° |
| 2026-05-04 19:09 | 39.84140 | -75.31055 | 2744 ft | 195 kts | 233° |
| 2026-05-04 19:09 | 39.83305 | -75.32530 | 3215 ft | 208 kts | 233° |
| 2026-05-04 19:09 | 39.82399 | -75.34134 | 3602 ft | 235 kts | 233° |
| 2026-05-04 19:10 | 39.81396 | -75.35911 | 4251 ft | 248 kts | 234° |
| 2026-05-04 19:10 | 39.80586 | -75.37883 | 5114 ft | 253 kts | 255° |
| 2026-05-04 19:10 | 39.80507 | -75.40162 | 6097 ft | 254 kts | 278° |
| 2026-05-04 19:10 | 39.81092 | -75.42268 | 7247 ft | 250 kts | 298° |
| 2026-05-04 19:11 | 39.82004 | -75.44243 | 8158 ft | 254 kts | 298° |
| 2026-05-04 19:11 | 39.82891 | -75.46261 | 9055 ft | 262 kts | 297° |
| 2026-05-04 19:11 | 39.83782 | -75.48339 | 10012 ft | 265 kts | 297° |
| 2026-05-04 19:11 | 39.84697 | -75.50490 | 10621 ft | 283 kts | 297° |
| 2026-05-04 19:12 | 39.85697 | -75.52842 | 10834 ft | 311 kts | 297° |
| 2026-05-04 19:12 | 39.87875 | -75.57930 | 12310 ft | 328 kts | 297° |
| 2026-05-04 19:12 | 39.88994 | -75.60537 | 13241 ft | 332 kts | 297° |
| 2026-05-04 19:13 | 39.90126 | -75.63175 | 14120 ft | 336 kts | 297° |
| 2026-05-04 19:13 | 39.91058 | -75.65967 | 14972 ft | 338 kts | 286° |
| 2026-05-04 19:13 | 39.91602 | -75.68958 | 15866 ft | 341 kts | 279° |
| 2026-05-04 19:13 | 39.91769 | -75.72053 | 16733 ft | 345 kts | 271° |
| 2026-05-04 19:14 | 39.91726 | -75.75206 | 17574 ft | 351 kts | 270° |
| 2026-05-04 19:14 | 39.91644 | -75.78405 | 18345 ft | 356 kts | 270° |
| 2026-05-04 19:14 | 39.91555 | -75.81653 | 19066 ft | 360 kts | 270° |
| 2026-05-04 19:14 | 39.91469 | -75.84929 | 19842 ft | 363 kts | 270° |
| 2026-05-04 19:15 | 39.91389 | -75.88227 | 20603 ft | 366 kts | 270° |
| 2026-05-04 19:15 | 39.91312 | -75.91554 | 21328 ft | 369 kts | 271° |
| 2026-05-04 19:15 | 39.91237 | -75.94919 | 22042 ft | 373 kts | 271° |
| 2026-05-04 19:15 | 39.91188 | -75.97162 | 22499 ft | 376 kts | 271° |
| 2026-05-04 19:16 | 39.91088 | -76.01697 | 23377 ft | 381 kts | 271° |
| 2026-05-04 19:16 | 39.91035 | -76.04042 | 23784 ft | 384 kts | 271° |
| 2026-05-04 19:16 | 39.90955 | -76.07529 | 24350 ft | 387 kts | 271° |
| 2026-05-04 19:16 | 39.90847 | -76.12237 | 25080 ft | 391 kts | 271° |
| 2026-05-04 19:17 | 39.90765 | -76.15795 | 25594 ft | 395 kts | 271° |
| 2026-05-04 19:17 | 39.90721 | -76.19329 | 26120 ft | 397 kts | 274° |
| 2026-05-04 19:17 | 39.90845 | -76.22927 | 26604 ft | 400 kts | 276° |
| 2026-05-04 19:17 | 39.91017 | -76.26554 | 27107 ft | 403 kts | 276° |
| 2026-05-04 19:18 | 39.91199 | -76.30216 | 27586 ft | 406 kts | 276° |
| 2026-05-04 19:18 | 39.91376 | -76.33902 | 28103 ft | 408 kts | 276° |
| 2026-05-04 19:18 | 39.91544 | -76.37584 | 28793 ft | 406 kts | 276° |
| 2026-05-04 19:18 | 39.91704 | -76.41239 | 29550 ft | 403 kts | 276° |
| 2026-05-04 19:19 | 39.91858 | -76.44883 | 30197 ft | 402 kts | 276° |
| 2026-05-04 19:19 | 39.92010 | -76.48508 | 30697 ft | 402 kts | 276° |
| 2026-05-04 19:19 | 39.92112 | -76.50952 | 31004 ft | 402 kts | 276° |
| 2026-05-04 19:19 | 39.92258 | -76.54513 | 31582 ft | 400 kts | 276° |
| 2026-05-04 19:20 | 39.92458 | -76.59355 | 31903 ft | 403 kts | 276° |
| 2026-05-04 19:20 | 39.92648 | -76.66615 | 31916 ft | 403 kts | 269° |
| 2026-05-04 19:21 | 39.91621 | -76.72578 | 31931 ft | 411 kts | 254° |
| 2026-05-04 19:21 | 39.88919 | -76.79228 | 31932 ft | 419 kts | 243° |
| 2026-05-04 19:22 | 39.85826 | -76.85665 | 31918 ft | 419 kts | 243° |
| 2026-05-04 19:22 | 39.82754 | -76.92097 | 31933 ft | 418 kts | 243° |
| 2026-05-04 19:23 | 39.79596 | -76.98793 | 31939 ft | 418 kts | 243° |
| 2026-05-04 19:23 | 39.76562 | -77.05238 | 31947 ft | 418 kts | 243° |
| 2026-05-04 19:24 | 39.73531 | -77.11662 | 31939 ft | 417 kts | 243° |
| 2026-05-04 19:24 | 39.70499 | -77.18073 | 31944 ft | 417 kts | 243° |
| 2026-05-04 19:25 | 39.67464 | -77.24480 | 31937 ft | 416 kts | 243° |
| 2026-05-04 19:25 | 39.64434 | -77.30869 | 31946 ft | 416 kts | 243° |
| 2026-05-04 19:26 | 39.61397 | -77.37259 | 31941 ft | 416 kts | 243° |
| 2026-05-04 19:26 | 39.58359 | -77.43638 | 31947 ft | 416 kts | 243° |
| 2026-05-04 19:27 | 39.55317 | -77.50010 | 31935 ft | 415 kts | 243° |
| 2026-05-04 19:27 | 39.52276 | -77.56369 | 31936 ft | 415 kts | 243° |
| 2026-05-04 19:28 | 39.49235 | -77.62712 | 31940 ft | 414 kts | 242° |
| 2026-05-04 19:28 | 39.46195 | -77.69043 | 31908 ft | 414 kts | 242° |
| 2026-05-04 19:29 | 39.43175 | -77.75319 | 31912 ft | 413 kts | 242° |
| 2026-05-04 19:29 | 39.40135 | -77.81626 | 31899 ft | 413 kts | 242° |
| 2026-05-04 19:30 | 39.37241 | -77.88001 | 31903 ft | 410 kts | 246° |
| 2026-05-04 19:30 | 39.34661 | -77.94547 | 31903 ft | 409 kts | 248° |
| 2026-05-04 19:31 | 39.32108 | -78.01101 | 31954 ft | 417 kts | 247° |
| 2026-05-04 19:31 | 39.30784 | -78.04471 | 32090 ft | 425 kts | 247° |
| 2026-05-04 19:31 | 39.29432 | -78.07885 | 32343 ft | 429 kts | 246° |
| 2026-05-04 19:31 | 39.28070 | -78.11306 | 32739 ft | 429 kts | 246° |
| 2026-05-04 19:32 | 39.26728 | -78.14663 | 33199 ft | 427 kts | 246° |
| 2026-05-04 19:32 | 39.25367 | -78.18060 | 33690 ft | 426 kts | 246° |
| 2026-05-04 19:32 | 39.24007 | -78.21449 | 34108 ft | 424 kts | 246° |
| 2026-05-04 19:32 | 39.22652 | -78.24826 | 34432 ft | 425 kts | 246° |
| 2026-05-04 19:33 | 39.21291 | -78.28214 | 34713 ft | 425 kts | 246° |
| 2026-05-04 19:33 | 39.19936 | -78.31586 | 35177 ft | 421 kts | 246° |
| 2026-05-04 19:33 | 39.18594 | -78.34918 | 35597 ft | 418 kts | 246° |
| 2026-05-04 19:33 | 39.17251 | -78.38253 | 35824 ft | 420 kts | 246° |
| 2026-05-04 19:34 | 39.15902 | -78.41601 | 36083 ft | 420 kts | 246° |
| 2026-05-04 19:34 | 39.14554 | -78.44941 | 36389 ft | 421 kts | 246° |
| 2026-05-04 19:34 | 39.13201 | -78.48290 | 36664 ft | 421 kts | 246° |
| 2026-05-04 19:34 | 39.11850 | -78.51632 | 36964 ft | 421 kts | 246° |
| 2026-05-04 19:35 | 39.10497 | -78.54971 | 37255 ft | 421 kts | 246° |
| 2026-05-04 19:35 | 39.09141 | -78.58315 | 37521 ft | 421 kts | 246° |
| 2026-05-04 19:35 | 39.07787 | -78.61651 | 37799 ft | 421 kts | 246° |
| 2026-05-04 19:36 | 39.05075 | -78.68322 | 37909 ft | 421 kts | 246° |
| 2026-05-04 19:36 | 39.02352 | -78.75008 | 37912 ft | 423 kts | 246° |
| 2026-05-04 19:37 | 38.99616 | -78.81708 | 37906 ft | 423 kts | 246° |
| 2026-05-04 19:37 | 38.96908 | -78.88328 | 37910 ft | 422 kts | 246° |
| 2026-05-04 19:38 | 38.94160 | -78.95035 | 37918 ft | 422 kts | 246° |
| 2026-05-04 19:38 | 38.91425 | -79.01694 | 37923 ft | 422 kts | 246° |
| 2026-05-04 19:39 | 38.88686 | -79.08349 | 37908 ft | 421 kts | 246° |
| 2026-05-04 19:39 | 38.85969 | -79.14939 | 37932 ft | 421 kts | 245° |
| 2026-05-04 19:40 | 38.83580 | -79.21730 | 37937 ft | 414 kts | 257° |
| 2026-05-04 19:40 | 38.82281 | -79.28906 | 37936 ft | 413 kts | 260° |
| 2026-05-04 19:41 | 38.81039 | -79.36092 | 37948 ft | 413 kts | 260° |
| 2026-05-04 19:41 | 38.79769 | -79.43266 | 37948 ft | 413 kts | 260° |
| 2026-05-04 19:42 | 38.78477 | -79.50432 | 37966 ft | 412 kts | 259° |
| 2026-05-04 19:42 | 38.77177 | -79.57587 | 37969 ft | 412 kts | 259° |
| 2026-05-04 19:43 | 38.75878 | -79.64708 | 37966 ft | 412 kts | 259° |
| 2026-05-04 19:43 | 38.74571 | -79.71851 | 37957 ft | 412 kts | 259° |
| 2026-05-04 19:44 | 38.73260 | -79.78988 | 37965 ft | 412 kts | 259° |
| 2026-05-04 19:44 | 38.71944 | -79.86129 | 37955 ft | 412 kts | 259° |
| 2026-05-04 19:45 | 38.70622 | -79.93271 | 37971 ft | 412 kts | 259° |
| 2026-05-04 19:45 | 38.69294 | -80.00421 | 37952 ft | 413 kts | 259° |
| 2026-05-04 19:46 | 38.67960 | -80.07573 | 37972 ft | 413 kts | 259° |
| 2026-05-04 19:46 | 38.66623 | -80.14723 | 37976 ft | 414 kts | 259° |
| 2026-05-04 19:47 | 38.65281 | -80.21883 | 37972 ft | 414 kts | 259° |
| 2026-05-04 19:47 | 38.63935 | -80.29041 | 37972 ft | 414 kts | 259° |
| 2026-05-04 19:48 | 38.62582 | -80.36212 | 37967 ft | 415 kts | 259° |
| 2026-05-04 19:48 | 38.61232 | -80.43334 | 37968 ft | 415 kts | 259° |
| 2026-05-04 19:49 | 38.59863 | -80.50537 | 37950 ft | 414 kts | 259° |
| 2026-05-04 19:49 | 38.58507 | -80.57639 | 37939 ft | 414 kts | 259° |
| 2026-05-04 19:50 | 38.57173 | -80.64804 | 37846 ft | 415 kts | 260° |
| 2026-05-04 19:50 | 38.56004 | -80.72039 | 37823 ft | 415 kts | 262° |
| 2026-05-04 19:51 | 38.55371 | -80.76673 | 37873 ft | 414 kts | 264° |
| 2026-05-04 19:51 | 38.55182 | -80.78195 | 37897 ft | 413 kts | 264° |
| 2026-05-04 19:52 | 38.54370 | -80.85378 | 37893 ft | 413 kts | 265° |
| 2026-05-04 19:52 | 38.53714 | -80.92674 | 37806 ft | 414 kts | 267° |
| 2026-05-04 19:53 | 38.53322 | -80.99982 | 37881 ft | 411 kts | 270° |
| 2026-05-04 19:53 | 38.53395 | -81.07261 | 37876 ft | 410 kts | 275° |
| 2026-05-04 19:54 | 38.53891 | -81.14513 | 37790 ft | 410 kts | 278° |
| 2026-05-04 19:54 | 38.54705 | -81.21719 | 37828 ft | 409 kts | 281° |
| 2026-05-04 19:55 | 38.55850 | -81.28815 | 37891 ft | 407 kts | 284° |
| 2026-05-04 19:55 | 38.57369 | -81.35780 | 37863 ft | 408 kts | 288° |
| 2026-05-04 19:55 | 38.58317 | -81.39210 | 37750 ft | 410 kts | 291° |
| 2026-05-04 19:56 | 38.59404 | -81.42590 | 37633 ft | 413 kts | 294° |
| 2026-05-04 19:56 | 38.61954 | -81.49155 | 37714 ft | 411 kts | 298° |
| 2026-05-04 19:56 | 38.63380 | -81.52306 | 37841 ft | 408 kts | 301° |
| 2026-05-04 19:57 | 38.64912 | -81.55356 | 37891 ft | 408 kts | 303° |
| 2026-05-04 19:57 | 38.68314 | -81.61215 | 37704 ft | 413 kts | 308° |
| 2026-05-04 19:58 | 38.72198 | -81.66676 | 37636 ft | 416 kts | 314° |
| 2026-05-04 19:58 | 38.76707 | -81.71345 | 37689 ft | 418 kts | 323° |
| 2026-05-04 19:59 | 38.81689 | -81.75212 | 37748 ft | 420 kts | 329° |
| 2026-05-04 19:59 | 38.86926 | -81.78409 | 37716 ft | 424 kts | 334° |
| 2026-05-04 20:00 | 38.92508 | -81.81128 | 37649 ft | 428 kts | 338° |
| 2026-05-04 20:00 | 38.98167 | -81.83289 | 37790 ft | 427 kts | 342° |
| 2026-05-04 20:01 | 39.03978 | -81.84949 | 37774 ft | 430 kts | 345° |
| 2026-05-04 20:01 | 39.09883 | -81.86221 | 37715 ft | 433 kts | 348° |
| 2026-05-04 20:02 | 39.13544 | -81.86797 | 37793 ft | 432 kts | 350° |